Time;durP1;ratioP1;P1;durP2;ratioP2;P2;SDS_P1;SDS_P2;PMS_P1;PMS_P2;Temp;Humidity;BMP_temperature;BMP_pressure;BME280_temperature;BME280_humidity;BME280_pressure;Samples;Min_cycle;Max_cycle;Signal;HPM_P1;HPM_P2
2024/01/14 00:04:01;;;;;;;9.63;4.03;;;;;;;0.07;64.23;99932.63;10520313;28;20939;-65
2024/01/14 00:09:03;;;;;;;10.40;3.70;;;;;;;0.22;63.93;99942.66;10518581;28;20431;-64
2024/01/14 00:14:05;;;;;;;8.27;3.63;;;;;;;0.26;63.87;99939.97;10498336;28;20044;-66
2024/01/14 00:19:09;;;;;;;6.95;3.50;;;;;;;0.28;63.90;99934.81;10516590;28;20403;-65
2024/01/14 00:24:11;;;;;;;8.65;3.50;;;;;;;0.38;63.33;99926.06;10516348;28;20048;-65
2024/01/14 00:29:13;;;;;;;6.80;3.47;;;;;;;0.23;63.67;99918.59;10519418;28;20035;-64
2024/01/14 00:34:15;;;;;;;8.68;3.88;;;;;;;0.28;63.73;99914.25;10520794;28;20043;-65
2024/01/14 00:39:17;;;;;;;7.03;4.00;;;;;;;0.45;63.26;99907.91;10516473;28;20048;-65
2024/01/14 00:44:19;;;;;;;7.85;4.15;;;;;;;0.33;63.45;99897.84;10519791;28;20127;-65
2024/01/14 00:49:24;;;;;;;9.27;4.25;;;;;;;0.50;63.25;99880.34;10518467;28;20039;-65
2024/01/14 00:54:26;;;;;;;9.52;3.78;;;;;;;0.32;63.39;99885.84;10498227;28;20040;-65
2024/01/14 00:59:29;;;;;;;8.18;3.25;;;;;;;0.38;63.28;99870.28;10519660;28;20055;-64
2024/01/14 01:04:31;;;;;;;8.77;3.70;;;;;;;0.38;63.23;99869.47;10517430;28;20131;-65
2024/01/14 01:09:33;;;;;;;9.75;3.42;;;;;;;0.32;63.45;99861.88;10517328;28;20654;-65
2024/01/14 01:14:35;;;;;;;7.38;3.05;;;;;;;0.39;63.12;99861.72;10505485;28;20036;-65
2024/01/14 01:19:37;;;;;;;7.63;3.47;;;;;;;0.40;63.05;99872.84;10525251;28;20197;-65
2024/01/14 01:24:39;;;;;;;7.55;3.38;;;;;;;0.48;62.98;99864.09;10524354;28;20315;-64
2024/01/14 01:29:42;;;;;;;7.15;3.35;;;;;;;0.58;62.95;99869.06;10524640;28;20380;-66
2024/01/14 01:34:44;;;;;;;10.68;3.78;;;;;;;0.44;63.20;99866.78;10524193;28;20042;-64
2024/01/14 01:39:46;;;;;;;6.53;3.05;;;;;;;0.35;63.69;99860.06;10523760;28;20052;-64
2024/01/14 01:44:48;;;;;;;6.38;3.17;;;;;;;0.41;63.48;99854.81;10528304;28;20778;-64
2024/01/14 01:49:50;;;;;;;7.30;3.80;;;;;;;0.39;63.64;99855.72;10524550;28;20400;-66
2024/01/14 01:54:54;;;;;;;6.95;2.95;;;;;;;0.49;63.18;99847.78;10504182;28;20158;-66
2024/01/14 01:59:57;;;;;;;6.13;2.97;;;;;;;0.11;64.34;99839.13;10520754;28;21162;-65
2024/01/14 02:04:59;;;;;;;6.55;3.30;;;;;;;0.29;63.80;99833.63;10523132;28;20071;-65
2024/01/14 02:10:02;;;;;;;10.25;3.60;;;;;;;0.40;63.59;99839.41;10509759;28;20130;-65
2024/01/14 02:15:05;;;;;;;9.38;4.15;;;;;;;0.28;63.88;99832.75;10527868;28;20162;-65
2024/01/14 02:20:08;;;;;;;5.53;2.90;;;;;;;0.42;63.53;99824.78;10522408;28;20136;-65
2024/01/14 02:25:12;;;;;;;7.50;3.20;;;;;;;0.43;63.56;99832.47;10508062;28;20419;-65
2024/01/14 02:30:14;;;;;;;7.57;3.20;;;;;;;0.36;63.71;99815.44;10527090;28;20093;-65
2024/01/14 02:35:16;;;;;;;6.35;3.15;;;;;;;0.33;64.01;99805.25;10520872;28;20067;-65
2024/01/14 02:40:18;;;;;;;8.52;3.65;;;;;;;0.39;63.66;99819.69;10520081;28;20047;-65
2024/01/14 02:45:20;;;;;;;7.38;3.17;;;;;;;0.41;63.77;99815.38;10524795;28;20097;-64
2024/01/14 02:50:22;;;;;;;8.48;4.07;;;;;;;0.51;63.41;99804.00;10519999;28;20117;-65
2024/01/14 02:55:24;;;;;;;10.35;4.15;;;;;;;0.54;63.35;99796.25;10520608;28;20127;-65
2024/01/14 03:00:26;;;;;;;9.25;3.72;;;;;;;0.50;63.60;99794.59;10520297;28;20433;-64
2024/01/14 03:05:28;;;;;;;6.38;3.22;;;;;;;0.63;63.19;99790.06;10522497;28;20040;-64
2024/01/14 03:10:30;;;;;;;6.68;3.15;;;;;;;0.53;63.64;99781.66;10519006;28;20044;-65
2024/01/14 03:15:32;;;;;;;7.82;2.92;;;;;;;0.57;63.61;99778.16;10520515;28;20500;-65
2024/01/14 03:20:34;;;;;;;9.43;3.08;;;;;;;0.61;63.49;99759.19;10522313;28;20514;-65
2024/01/14 03:25:36;;;;;;;6.53;3.00;;;;;;;0.53;63.55;99735.34;10518465;28;20432;-64
2024/01/14 03:30:38;;;;;;;10.02;3.33;;;;;;;0.52;63.55;99724.19;10521637;28;20047;-65
2024/01/14 03:35:40;;;;;;;5.75;2.88;;;;;;;0.38;63.85;99743.41;10520019;28;20042;-65
2024/01/14 03:40:42;;;;;;;6.57;3.08;;;;;;;0.39;63.69;99738.22;10520379;28;20040;-65
2024/01/14 03:45:44;;;;;;;8.20;3.22;;;;;;;0.30;64.03;99732.44;10519342;28;20036;-65
2024/01/14 03:50:46;;;;;;;3.95;2.22;;;;;;;0.51;63.51;99737.97;10501494;28;20291;-64
2024/01/14 03:55:48;;;;;;;7.50;2.70;;;;;;;0.39;63.44;99719.38;10519290;28;20037;-65
2024/01/14 04:00:50;;;;;;;9.50;3.35;;;;;;;0.46;63.30;99719.19;10516648;28;20225;-65
2024/01/14 04:05:52;;;;;;;8.75;3.60;;;;;;;0.42;63.39;99716.75;10500889;28;20093;-65
2024/01/14 04:10:55;;;;;;;7.32;3.05;;;;;;;0.49;63.28;99710.56;10518079;28;20048;-65
2024/01/14 04:15:57;;;;;;;6.85;3.00;;;;;;;0.48;63.16;99717.44;10517810;28;20055;-66
2024/01/14 04:21:03;;;;;;;7.03;3.35;;;;;;;0.38;62.93;99712.56;10524723;28;20071;-65
2024/01/14 04:26:06;;;;;;;7.55;3.33;;;;;;;0.48;62.99;99714.88;10518143;28;20040;-65
2024/01/14 04:31:08;;;;;;;7.63;3.00;;;;;;;0.58;62.71;99696.66;10523792;28;20048;-64
2024/01/14 04:36:10;;;;;;;11.52;3.65;;;;;;;0.49;62.96;99674.56;10517953;28;20477;-65
2024/01/14 04:41:12;;;;;;;7.07;3.53;;;;;;;0.51;63.01;99647.91;10523290;28;20573;-65
2024/01/14 04:46:14;;;;;;;7.65;3.15;;;;;;;0.60;62.61;99646.00;10503097;28;20052;-64
2024/01/14 04:51:17;;;;;;;8.27;3.85;;;;;;;0.45;62.46;99670.34;10524580;28;20526;-66
2024/01/14 04:56:19;;;;;;;9.30;3.55;;;;;;;0.53;62.48;99674.44;10524078;28;20503;-65
2024/01/14 05:01:21;;;;;;;6.28;3.20;;;;;;;0.51;62.35;99670.22;10530380;28;20514;-65
2024/01/14 05:06:24;;;;;;;7.90;2.72;;;;;;;0.54;62.07;99673.56;10525872;28;20135;-64
2024/01/14 05:11:26;;;;;;;6.85;2.85;;;;;;;0.64;62.33;99669.06;10529387;28;20051;-65
2024/01/14 05:16:28;;;;;;;9.48;3.47;;;;;;;0.62;62.21;99668.25;10521611;28;20408;-64
2024/01/14 05:21:30;;;;;;;6.10;2.80;;;;;;;0.68;61.84;99670.69;10506610;28;20040;-66
2024/01/14 05:26:32;;;;;;;5.38;2.83;;;;;;;0.51;62.12;99660.78;10521793;27;20043;-66
2024/01/14 05:31:37;;;;;;;6.72;3.00;;;;;;;0.44;62.37;99645.53;10505414;28;20036;-65
2024/01/14 05:36:39;;;;;;;6.22;2.85;;;;;;;0.46;62.30;99651.50;10521665;28;20113;-66
2024/01/14 05:41:41;;;;;;;5.40;2.72;;;;;;;0.29;62.45;99644.16;10521101;28;20060;-65
2024/01/14 05:46:43;;;;;;;7.00;3.45;;;;;;;0.43;62.25;99648.97;10522828;28;20110;-65
2024/01/14 05:51:45;;;;;;;5.55;2.70;;;;;;;0.52;62.32;99646.19;10522945;28;20499;-66
2024/01/14 05:56:47;;;;;;;6.10;2.60;;;;;;;0.48;62.02;99645.41;10522306;28;20032;-66
2024/01/14 06:01:49;;;;;;;7.22;3.22;;;;;;;0.50;62.51;99650.53;10503342;28;20365;-66
2024/01/14 06:06:51;;;;;;;6.03;2.80;;;;;;;0.38;62.47;99648.25;10503240;28;20052;-64
2024/01/14 06:11:53;;;;;;;11.35;3.50;;;;;;;0.23;62.60;99654.59;10519818;28;20066;-65
2024/01/14 06:16:55;;;;;;;8.75;3.15;;;;;;;0.45;62.69;99645.50;10519138;28;20051;-65
2024/01/14 06:22:00;;;;;;;6.80;3.08;;;;;;;0.48;62.81;99634.28;10519860;28;20487;-65
2024/01/14 06:27:02;;;;;;;7.10;3.38;;;;;;;0.36;62.74;99629.44;10518366;28;20129;-65
2024/01/14 06:32:05;;;;;;;5.03;2.45;;;;;;;0.40;62.33;99620.75;10523535;28;20032;-65
2024/01/14 06:37:07;;;;;;;6.10;2.85;;;;;;;0.40;62.49;99618.19;10526311;28;20085;-64
2024/01/14 06:42:09;;;;;;;7.15;3.30;;;;;;;0.16;62.97;99613.63;10519931;28;20515;-65
2024/01/14 06:47:11;;;;;;;5.75;3.00;;;;;;;0.15;62.84;99610.19;10503984;28;20391;-64
2024/01/14 06:52:13;;;;;;;7.00;3.30;;;;;;;0.07;62.96;99612.09;10520410;28;20123;-64
2024/01/14 06:57:15;;;;;;;6.63;3.05;;;;;;;0.14;63.03;99602.50;10523873;28;20471;-64
2024/01/14 07:02:17;;;;;;;6.18;2.80;;;;;;;0.27;62.55;99606.50;10528053;28;20135;-64
2024/01/14 07:07:19;;;;;;;6.20;2.60;;;;;;;0.20;62.87;99612.66;10522890;28;20054;-64
2024/01/14 07:12:21;;;;;;;7.32;2.45;;;;;;;0.26;62.83;99609.94;10519174;28;20394;-64
2024/01/14 07:17:26;;;;;;;7.88;2.97;;;;;;;0.16;62.85;99608.47;10524779;28;20127;-65
2024/01/14 07:22:48;;;;;;;7.13;3.53;;;;;;;0.21;62.67;99617.78;10506970;28;20711;-64
2024/01/14 07:27:50;;;;;;;7.25;3.15;;;;;;;0.06;62.82;99615.53;10518410;28;20044;-64
2024/01/14 07:32:52;;;;;;;4.70;2.60;;;;;;;0.12;62.95;99599.13;10519300;28;20529;-64
2024/01/14 07:37:54;;;;;;;6.90;3.33;;;;;;;0.19;62.70;99600.69;10517516;28;20469;-64
2024/01/14 07:42:56;;;;;;;11.07;3.17;;;;;;;0.30;62.53;99601.28;10518988;28;20715;-65
2024/01/14 07:47:58;;;;;;;5.60;3.03;;;;;;;0.14;62.30;99589.63;10517856;28;20425;-64
2024/01/14 07:53:00;;;;;;;4.93;2.67;;;;;;;0.09;62.30;99588.91;10518575;28;20542;-64
2024/01/14 07:58:02;;;;;;;6.60;2.92;;;;;;;-0.04;62.73;99608.06;10517162;28;20052;-64
2024/01/14 08:03:04;;;;;;;5.00;2.75;;;;;;;0.05;62.37;99601.00;10516211;28;20126;-64
2024/01/14 08:08:06;;;;;;;7.38;2.83;;;;;;;0.22;62.34;99608.34;10517573;28;20111;-64
2024/01/14 08:13:08;;;;;;;11.07;3.15;;;;;;;0.31;62.39;99605.53;10516145;28;20051;-64
2024/01/14 08:18:11;;;;;;;8.63;2.95;;;;;;;0.44;61.66;99599.22;10517069;28;20473;-64
2024/01/14 08:23:13;;;;;;;7.03;2.90;;;;;;;0.49;61.35;99600.78;10522422;28;20044;-64
2024/01/14 08:28:16;;;;;;;7.90;3.20;;;;;;;0.43;61.98;99588.09;10525887;28;20540;-64
2024/01/14 08:33:18;;;;;;;5.13;2.58;;;;;;;0.63;61.61;99594.47;10523247;28;20044;-65
2024/01/14 08:38:21;;;;;;;5.82;2.65;;;;;;;0.57;61.49;99589.47;10525448;28;20048;-64
2024/01/14 08:43:23;;;;;;;5.45;2.85;;;;;;;0.66;61.32;99587.53;10474475;28;20056;-63
2024/01/14 08:48:25;;;;;;;5.55;2.83;;;;;;;0.56;61.40;99586.06;10524948;28;20065;-64
2024/01/14 08:53:27;;;;;;;7.38;2.95;;;;;;;0.67;61.34;99578.91;10523016;28;20412;-64
2024/01/14 08:58:29;;;;;;;9.25;3.72;;;;;;;0.78;61.03;99574.34;10524622;28;20139;-65
2024/01/14 09:03:31;;;;;;;5.32;3.15;;;;;;;0.82;60.75;99567.38;10525523;28;20052;-64
2024/01/14 09:08:33;;;;;;;6.43;2.95;;;;;;;0.99;60.70;99576.31;10514815;28;20043;-65
2024/01/14 09:13:35;;;;;;;7.78;3.55;;;;;;;1.09;60.17;99576.94;10529974;28;20044;-65
2024/01/14 09:18:37;;;;;;;6.57;2.80;;;;;;;1.24;60.19;99571.34;10524477;28;21196;-65
2024/01/14 09:23:40;;;;;;;5.57;2.65;;;;;;;1.36;59.70;99577.00;10530494;28;20052;-65
2024/01/14 09:28:42;;;;;;;3.92;2.15;;;;;;;1.67;59.57;99581.28;10508018;28;20046;-64
2024/01/14 09:33:44;;;;;;;7.32;2.97;;;;;;;1.72;58.87;99575.13;10529299;28;20051;-64
2024/01/14 09:38:46;;;;;;;7.18;2.90;;;;;;;1.73;59.13;99576.78;10523049;28;20051;-64
2024/01/14 09:43:50;;;;;;;5.57;2.88;;;;;;;1.89;58.67;99574.63;10526209;27;20043;-64
2024/01/14 09:48:54;;;;;;;8.75;3.05;;;;;;;1.93;58.97;99573.63;10522681;27;20058;-65
2024/01/14 09:54:00;;;;;;;6.38;3.25;;;;;;;1.81;58.76;99573.97;10505074;28;20058;-65
2024/01/14 09:59:03;;;;;;;5.55;2.65;;;;;;;1.84;58.71;99568.75;10523804;27;20142;-65
2024/01/14 10:04:06;;;;;;;6.53;2.72;;;;;;;1.66;58.65;99577.03;10522609;28;20052;-64
2024/01/14 10:09:08;;;;;;;7.88;3.22;;;;;;;1.68;58.95;99567.53;10523785;28;20126;-64
2024/01/14 10:14:10;;;;;;;7.05;3.42;;;;;;;1.79;58.68;99573.19;10522847;28;20044;-64
2024/01/14 10:19:12;;;;;;;5.45;2.75;;;;;;;1.81;58.49;99569.69;10523999;28;20050;-64
2024/01/14 10:24:14;;;;;;;6.93;2.92;;;;;;;1.63;58.46;99559.06;10522123;27;20489;-65
2024/01/14 10:29:17;;;;;;;12.15;3.30;;;;;;;1.55;58.87;99549.00;10521388;28;20044;-65
2024/01/14 10:34:20;;;;;;;7.18;2.80;;;;;;;1.69;58.93;99543.41;10521524;28;20119;-64
2024/01/14 10:39:32;;;;;;;5.53;2.58;;;;;;;1.63;58.53;99539.31;10519795;28;20051;-64
2024/01/14 10:44:35;;;;;;;5.68;2.83;;;;;;;1.68;58.81;99515.97;10522503;27;20051;-64
2024/01/14 10:49:43;;;;;;;6.53;2.63;;;;;;;1.78;58.89;99513.06;10528409;27;20078;-67
2024/01/14 10:54:49;;;;;;;5.75;3.00;;;;;;;1.75;58.59;99497.69;10520505;28;20040;-66
2024/01/14 11:00:06;;;;;;;5.03;2.80;;;;;;;1.75;58.43;99481.38;10526983;28;20131;-66
2024/01/14 11:05:09;;;;;;;5.78;2.40;;;;;;;1.82;58.60;99491.47;10516194;28;20040;-67
2024/01/14 11:10:12;;;;;;;6.22;2.67;;;;;;;1.97;58.31;99472.09;10519825;28;20390;-67
2024/01/14 11:15:26;;;;;;;4.95;2.38;;;;;;;2.04;58.23;99463.25;10483903;28;20047;-67
2024/01/14 11:20:32;;;;;;;6.22;2.47;;;;;;;1.89;57.95;99463.75;10499664;28;20090;-67
2024/01/14 11:25:55;;;;;;;5.70;2.25;;;;;;;2.01;58.32;99446.13;10516873;28;20062;-66
2024/01/14 11:30:59;;;;;;;5.18;2.55;;;;;;;2.04;57.78;99450.34;10520261;28;20134;-67
2024/01/14 11:36:01;;;;;;;5.25;2.22;;;;;;;1.96;58.21;99447.19;10516577;28;20059;-67
2024/01/14 11:41:26;;;;;;;3.53;2.13;;;;;;;1.99;58.02;99431.63;10516869;28;20110;-66
2024/01/14 11:46:33;;;;;;;4.00;2.42;;;;;;;1.77;58.32;99417.72;10515840;27;20135;-67
2024/01/14 11:51:50;;;;;;;4.82;2.58;;;;;;;1.88;58.69;99411.34;10515319;28;20158;-67
2024/01/14 11:56:52;;;;;;;6.03;2.80;;;;;;;1.72;58.41;99399.00;10515303;27;20482;-67
2024/01/14 12:01:54;;;;;;;5.65;2.58;;;;;;;1.90;58.69;99388.06;10514632;28;20044;-67
2024/01/14 12:06:56;;;;;;;4.32;2.28;;;;;;;2.05;58.36;99375.50;10514757;28;20048;-67
2024/01/14 12:12:04;;;;;;;6.90;2.60;;;;;;;2.22;57.86;99349.13;10516114;28;20061;-67
2024/01/14 12:17:10;;;;;;;5.57;2.50;;;;;;;2.43;57.74;99332.88;10513833;28;20044;-66
2024/01/14 12:22:12;;;;;;;4.07;1.98;;;;;;;2.69;57.29;99314.69;10513979;28;20185;-67
2024/01/14 12:27:14;;;;;;;5.70;2.70;;;;;;;2.36;56.92;99330.59;10514483;28;20060;-67
2024/01/14 12:32:16;;;;;;;4.07;1.65;;;;;;;2.40;57.34;99306.34;10514606;28;20036;-67
2024/01/14 12:37:21;;;;;;;4.97;2.50;;;;;;;2.45;57.01;99310.44;10513738;28;20101;-67
2024/01/14 12:42:24;;;;;;;6.13;2.75;;;;;;;2.64;57.14;99295.13;10514076;28;20123;-66
2024/01/14 12:47:26;;;;;;;5.95;3.17;;;;;;;2.62;56.99;99289.16;10513617;28;20127;-67
2024/01/14 12:52:28;;;;;;;6.95;3.47;;;;;;;2.79;56.88;99285.03;10513751;28;20060;-67
2024/01/14 12:57:30;;;;;;;5.47;2.28;;;;;;;2.75;55.98;99252.50;10497720;28;20048;-67
2024/01/14 13:02:32;;;;;;;5.20;2.08;;;;;;;2.84;56.34;99246.97;10515135;28;20547;-67
2024/01/14 13:07:35;;;;;;;4.75;2.85;;;;;;;2.89;56.46;99239.03;10519323;28;20116;-67
2024/01/14 13:12:38;;;;;;;6.65;2.83;;;;;;;3.17;56.14;99229.28;10501865;28;20121;-67
2024/01/14 13:17:41;;;;;;;5.38;2.83;;;;;;;3.27;55.67;99224.56;10522440;28;20080;-67
2024/01/14 13:22:43;;;;;;;5.97;2.65;;;;;;;3.16;55.55;99226.75;10509903;28;20043;-67
2024/01/14 13:27:45;;;;;;;4.68;2.28;;;;;;;2.93;55.88;99220.78;10506580;28;20412;-67
2024/01/14 13:32:48;;;;;;;5.65;2.88;;;;;;;2.85;55.95;99212.50;10530492;28;20049;-67
2024/01/14 13:37:50;;;;;;;4.88;2.60;;;;;;;2.61;56.01;99212.63;10531909;28;20098;-67
2024/01/14 13:42:52;;;;;;;6.30;2.88;;;;;;;2.53;55.94;99194.00;10530803;28;20052;-66
2024/01/14 13:47:54;;;;;;;7.53;2.70;;;;;;;2.52;56.28;99188.00;10534773;28;20048;-67
2024/01/14 13:52:57;;;;;;;4.82;2.40;;;;;;;2.54;56.24;99180.22;10511008;28;20039;-67
2024/01/14 13:57:59;;;;;;;6.82;2.90;;;;;;;2.43;56.02;99183.22;10526372;28;20579;-67
2024/01/14 14:03:00;;;;;;;6.15;2.70;;;;;;;2.40;56.56;99169.59;10515944;28;20146;-67
2024/01/14 14:08:03;;;;;;;5.43;2.33;;;;;;;2.50;56.04;99166.56;10529433;27;20100;-67
2024/01/14 14:13:06;;;;;;;3.35;1.90;;;;;;;2.35;56.40;99168.91;10531645;28;20052;-67
2024/01/14 14:18:08;;;;;;;5.93;2.47;;;;;;;2.39;56.27;99167.91;10527727;28;20048;-67
2024/01/14 14:23:20;;;;;;;8.50;2.53;;;;;;;2.09;56.33;99168.16;10529915;27;20093;-67
2024/01/14 14:28:22;;;;;;;4.63;2.60;;;;;;;2.08;56.68;99171.66;10504443;27;20373;-67
2024/01/14 14:33:24;;;;;;;6.75;2.92;;;;;;;1.96;56.44;99171.25;10525233;27;20056;-67
2024/01/14 14:38:27;;;;;;;6.30;2.58;;;;;;;1.94;56.51;99158.44;10523420;28;20070;-67
2024/01/14 14:43:31;;;;;;;6.05;2.88;;;;;;;1.82;56.95;99150.31;10523391;27;20079;-67
2024/01/14 14:48:34;;;;;;;8.73;3.38;;;;;;;1.78;57.06;99146.16;10521671;28;20087;-67
2024/01/14 14:53:36;;;;;;;6.80;2.95;;;;;;;1.79;57.11;99137.50;10503980;27;20032;-67
2024/01/14 14:58:38;;;;;;;9.25;3.85;;;;;;;1.76;56.96;99135.06;10519029;28;20055;-67
2024/01/14 15:03:40;;;;;;;5.93;2.75;;;;;;;1.79;56.78;99129.78;10518802;28;20073;-67
2024/01/14 15:08:42;;;;;;;5.55;3.05;;;;;;;1.81;56.85;99128.84;10520632;28;20052;-66
2024/01/14 15:13:45;;;;;;;5.75;2.95;;;;;;;1.76;56.82;99114.44;10519387;28;20073;-67
2024/01/14 15:18:47;;;;;;;7.50;3.25;;;;;;;1.75;56.98;99120.47;10501398;28;20086;-66
2024/01/14 15:23:49;;;;;;;6.68;2.78;;;;;;;1.70;57.19;99110.38;10518180;28;20055;-66
2024/01/14 15:28:51;;;;;;;6.55;3.30;;;;;;;1.68;56.95;99113.88;10519542;28;20047;-66
2024/01/14 15:33:53;;;;;;;7.55;3.40;;;;;;;1.60;57.23;99106.44;10519694;28;20044;-66
2024/01/14 15:38:56;;;;;;;7.88;3.15;;;;;;;1.52;57.25;99097.31;10517671;28;20564;-66
2024/01/14 15:43:59;;;;;;;10.77;4.00;;;;;;;1.43;57.21;99092.47;10518532;28;20773;-67
2024/01/14 15:49:01;;;;;;;9.18;3.33;;;;;;;1.47;57.51;99086.31;10520342;28;20040;-66
2024/01/14 15:54:04;;;;;;;8.32;3.33;;;;;;;1.43;57.24;99071.88;10518573;28;20070;-66
2024/01/14 15:59:06;;;;;;;12.10;3.03;;;;;;;1.27;57.71;99069.88;10523048;28;20109;-66
2024/01/14 16:04:08;;;;;;;7.85;3.45;;;;;;;1.27;57.78;99057.00;10522209;28;20048;-67
2024/01/14 16:09:10;;;;;;;8.23;4.10;;;;;;;1.05;58.01;99056.06;10517116;28;20055;-66
2024/01/14 16:14:12;;;;;;;9.10;3.40;;;;;;;1.06;57.73;99052.59;10521856;28;20060;-67
2024/01/14 16:19:14;;;;;;;12.32;4.03;;;;;;;0.85;58.22;99047.38;10526866;28;20065;-64
2024/01/14 16:24:19;;;;;;;6.88;2.97;;;;;;;0.84;58.18;99045.66;10515327;28;20052;-63
2024/01/14 16:29:22;;;;;;;8.65;3.33;;;;;;;0.56;58.63;99034.63;10516959;28;20629;-63
2024/01/14 16:34:24;;;;;;;7.65;3.30;;;;;;;0.69;58.59;99043.63;10514629;28;20489;-64
2024/01/14 16:39:26;;;;;;;8.73;3.22;;;;;;;0.54;58.75;99052.72;10521365;28;20044;-64
2024/01/14 16:44:28;;;;;;;6.22;2.70;;;;;;;0.50;58.67;99058.84;10502592;28;20646;-64
2024/01/14 16:49:30;;;;;;;12.23;3.88;;;;;;;0.50;58.66;99040.84;10523266;28;20036;-64
2024/01/14 16:54:33;;;;;;;7.38;3.40;;;;;;;0.31;58.89;99029.47;10522312;28;20044;-65
2024/01/14 16:59:36;;;;;;;7.80;4.03;;;;;;;0.07;59.16;99027.69;10525767;28;20040;-64
2024/01/14 17:04:38;;;;;;;6.97;3.15;;;;;;;0.19;59.30;99022.16;10521511;28;20056;-64
2024/01/14 17:09:40;;;;;;;9.20;3.58;;;;;;;0.14;59.12;99018.88;10523394;28;20051;-63
2024/01/14 17:14:43;;;;;;;8.57;3.65;;;;;;;0.13;59.33;99019.78;10522132;28;20044;-64
2024/01/14 17:19:45;;;;;;;10.32;3.85;;;;;;;0.20;59.04;99019.53;10522028;28;20113;-64
2024/01/14 17:24:48;;;;;;;11.80;3.60;;;;;;;0.26;58.99;99008.22;10520422;28;20081;-64
2024/01/14 17:29:50;;;;;;;8.00;3.30;;;;;;;0.33;58.78;99001.97;10506919;27;20081;-64
2024/01/14 17:34:52;;;;;;;7.57;3.53;;;;;;;0.36;58.70;98994.16;10521314;27;20050;-65
2024/01/14 17:39:55;;;;;;;5.47;2.60;;;;;;;0.25;59.07;98980.81;10520183;27;20261;-64
2024/01/14 17:44:57;;;;;;;10.65;3.35;;;;;;;0.32;58.69;98984.88;10520706;27;20648;-64
2024/01/14 17:50:00;;;;;;;9.27;3.67;;;;;;;0.26;58.81;98983.31;10522542;27;20109;-64
2024/01/14 17:55:03;;;;;;;9.70;3.47;;;;;;;0.11;58.52;98981.28;10519109;27;20657;-64
2024/01/14 18:00:07;;;;;;;7.20;3.47;;;;;;;0.16;59.16;98969.09;10521199;27;20048;-64
2024/01/14 18:05:09;;;;;;;7.68;3.40;;;;;;;-0.05;58.80;98966.41;10519680;27;20174;-64
2024/01/14 18:10:11;;;;;;;9.50;4.15;;;;;;;-0.17;59.20;98953.94;10498979;27;20046;-64
2024/01/14 18:15:17;;;;;;;8.30;3.67;;;;;;;-0.08;59.39;98951.91;10505201;27;20407;-65
2024/01/14 18:20:19;;;;;;;9.25;3.85;;;;;;;-0.19;58.95;98940.31;10502481;27;20036;-64
2024/01/14 18:25:21;;;;;;;8.15;3.90;;;;;;;-0.26;59.13;98918.25;10502217;28;20145;-64
2024/01/14 18:30:23;;;;;;;7.55;3.63;;;;;;;-0.26;59.09;98925.97;10501733;27;20078;-64
2024/01/14 18:35:26;;;;;;;7.60;3.22;;;;;;;-0.41;59.23;98924.72;10518763;27;20052;-64
2024/01/14 18:40:28;;;;;;;10.05;3.55;;;;;;;-0.49;59.53;98929.25;10482827;28;20059;-64
2024/01/14 18:45:31;;;;;;;8.23;4.07;;;;;;;-0.43;59.50;98921.34;10518508;28;20047;-64
2024/01/14 18:50:33;;;;;;;10.98;3.53;;;;;;;-0.74;60.25;98918.91;10522816;28;20052;-65
2024/01/14 18:55:39;;;;;;;9.50;3.67;;;;;;;-0.63;59.78;98903.16;10517077;28;20036;-64
2024/01/14 19:00:42;;;;;;;12.10;3.92;;;;;;;-0.60;59.93;98897.97;10520781;28;20472;-64
2024/01/14 19:05:44;;;;;;;9.60;3.60;;;;;;;-0.81;60.48;98898.59;10516416;28;20044;-64
2024/01/14 19:10:46;;;;;;;7.82;3.35;;;;;;;-0.81;60.47;98898.59;10517080;28;20040;-64
2024/01/14 19:15:48;;;;;;;11.02;3.92;;;;;;;-0.97;60.87;98893.09;10517325;28;20044;-63
2024/01/14 19:20:51;;;;;;;8.52;4.20;;;;;;;-0.85;60.45;98892.72;10516808;28;20796;-64
2024/01/14 19:25:53;;;;;;;10.23;3.72;;;;;;;-0.88;60.65;98897.94;10498551;28;20460;-63
2024/01/14 19:30:55;;;;;;;11.30;3.90;;;;;;;-0.66;60.11;98885.31;10518197;28;20449;-64
2024/01/14 19:35:58;;;;;;;7.85;3.58;;;;;;;-0.70;60.38;98886.28;10515884;28;20051;-63
2024/01/14 19:41:00;;;;;;;8.55;3.58;;;;;;;-0.80;60.47;98875.44;10514411;28;20056;-64
2024/01/14 19:46:03;;;;;;;11.05;3.50;;;;;;;-0.84;60.75;98883.31;10498738;28;20036;-64
2024/01/14 19:51:06;;;;;;;10.65;4.22;;;;;;;-0.87;60.80;98884.25;10516871;28;20055;-64
2024/01/14 19:56:08;;;;;;;10.70;4.00;;;;;;;-0.79;60.82;98881.44;10515477;28;20046;-64
2024/01/14 20:01:10;;;;;;;8.88;3.70;;;;;;;-0.74;60.53;98882.13;10515984;27;20051;-64
2024/01/14 20:06:12;;;;;;;10.25;3.80;;;;;;;-0.85;60.92;98885.03;10516067;28;20135;-64
2024/01/14 20:11:14;;;;;;;7.72;3.78;;;;;;;-0.89;61.01;98875.75;10513191;27;20396;-63
2024/01/14 20:16:17;;;;;;;11.07;4.15;;;;;;;-0.87;60.92;98873.97;10517268;28;20519;-66
2024/01/14 20:21:19;;;;;;;10.65;4.00;;;;;;;-0.71;60.55;98851.22;10509904;28;20503;-64
2024/01/14 20:26:22;;;;;;;8.88;3.88;;;;;;;-0.70;60.95;98860.63;10519061;28;20489;-64
2024/01/14 20:31:24;;;;;;;9.85;4.25;;;;;;;-0.80;61.05;98849.78;10513442;28;20497;-64
2024/01/14 20:36:27;;;;;;;8.93;3.60;;;;;;;-0.88;60.94;98850.94;10520502;28;20036;-65
2024/01/14 20:41:30;;;;;;;10.13;3.67;;;;;;;-0.89;60.79;98844.94;10511282;28;20047;-65
2024/01/14 20:46:32;;;;;;;11.77;4.22;;;;;;;-0.92;61.10;98831.38;10529457;28;20057;-65
2024/01/14 20:51:34;;;;;;;8.48;3.70;;;;;;;-0.90;60.96;98827.84;10513263;28;20598;-64
2024/01/14 20:56:36;;;;;;;10.32;3.97;;;;;;;-0.91;60.99;98813.38;10502968;28;20070;-63
2024/01/14 21:01:38;;;;;;;9.95;3.88;;;;;;;-0.91;61.05;98826.19;10529545;28;20036;-64
2024/01/14 21:06:40;;;;;;;8.57;4.10;;;;;;;-1.03;61.79;98810.34;10518959;28;20452;-64
2024/01/14 21:11:43;;;;;;;9.02;4.40;;;;;;;-0.99;61.78;98811.91;10525634;28;20032;-64
2024/01/14 21:16:45;;;;;;;9.55;4.10;;;;;;;-0.99;61.56;98804.22;10530214;28;20559;-64
2024/01/14 21:21:47;;;;;;;9.95;4.05;;;;;;;-0.96;61.72;98804.13;10523411;28;20126;-64
2024/01/14 21:26:49;;;;;;;13.30;3.97;;;;;;;-1.02;62.11;98786.38;10535043;28;20097;-64
2024/01/14 21:31:51;;;;;;;8.50;3.78;;;;;;;-0.99;61.93;98776.00;10533916;28;20551;-64
2024/01/14 21:36:53;;;;;;;10.18;4.43;;;;;;;-0.82;61.52;98768.59;10534878;28;20048;-64
2024/01/14 21:41:55;;;;;;;9.93;4.72;;;;;;;-0.85;61.63;98779.81;10529683;28;20055;-64
2024/01/14 21:46:57;;;;;;;10.07;3.78;;;;;;;-1.00;61.85;98777.72;10528103;28;20078;-64
2024/01/14 21:51:59;;;;;;;10.77;4.40;;;;;;;-0.84;61.63;98780.66;10525465;28;20666;-64
2024/01/14 21:57:01;;;;;;;12.18;4.57;;;;;;;-0.83;61.59;98778.03;10521448;28;20083;-64
2024/01/14 22:02:03;;;;;;;9.68;3.75;;;;;;;-0.97;61.76;98771.66;10527043;28;20516;-64
2024/01/14 22:07:05;;;;;;;7.75;3.22;;;;;;;-0.97;61.72;98764.81;10522497;28;20075;-64
2024/01/14 22:12:08;;;;;;;9.73;3.63;;;;;;;-1.00;62.26;98770.00;10523840;28;21008;-64
2024/01/14 22:17:10;;;;;;;8.57;3.58;;;;;;;-1.05;62.16;98768.50;10522800;28;20127;-63
2024/01/14 22:22:13;;;;;;;10.27;3.63;;;;;;;-1.03;62.52;98774.41;10522657;28;20133;-65
2024/01/14 22:27:14;;;;;;;9.60;4.15;;;;;;;-1.08;62.93;98766.84;10521757;28;20135;-64
2024/01/14 22:32:16;;;;;;;7.22;3.42;;;;;;;-1.30;64.01;98770.97;10522815;28;20055;-65
2024/01/14 22:37:24;;;;;;;10.50;4.55;;;;;;;-1.30;63.75;98770.97;10522279;28;20555;-64
2024/01/14 22:42:26;;;;;;;8.38;3.53;;;;;;;-1.43;64.58;98774.81;10520483;28;20040;-64
2024/01/14 22:47:28;;;;;;;7.00;3.03;;;;;;;-1.36;63.94;98776.28;10503329;28;20048;-64
2024/01/14 22:52:30;;;;;;;7.50;3.03;;;;;;;-1.47;64.42;98774.03;10519356;28;20044;-64
2024/01/14 22:57:32;;;;;;;8.90;3.28;;;;;;;-1.33;64.55;98779.59;10519799;28;20143;-64
2024/01/14 23:02:34;;;;;;;8.90;3.00;;;;;;;-1.19;63.92;98774.06;10528034;28;20043;-64
2024/01/14 23:07:36;;;;;;;9.43;3.20;;;;;;;-1.22;63.82;98781.84;10521208;28;20047;-64
2024/01/14 23:12:38;;;;;;;6.00;3.22;;;;;;;-1.19;63.68;98779.19;10520511;28;20044;-64
2024/01/14 23:17:40;;;;;;;5.82;2.70;;;;;;;-1.27;64.05;98778.59;10508051;28;20051;-64
2024/01/14 23:22:42;;;;;;;8.00;3.42;;;;;;;-1.32;64.47;98788.13;10518689;28;20048;-64
2024/01/14 23:27:44;;;;;;;7.00;2.70;;;;;;;-1.23;64.01;98787.88;10519977;28;20050;-64
2024/01/14 23:32:47;;;;;;;6.75;2.90;;;;;;;-1.06;63.73;98785.59;10520001;28;20300;-65
2024/01/14 23:37:49;;;;;;;8.00;2.92;;;;;;;-1.33;64.40;98771.09;10519497;28;20052;-65